createdAt,value
2023-05-03T00:00:30.339Z,7.02
2023-05-03T00:01:30.362Z,7.03
2023-05-03T00:02:30.437Z,7.05
2023-05-03T00:03:30.391Z,7.02
2023-05-03T00:04:30.419Z,6.98
2023-05-03T00:05:30.436Z,6.99
2023-05-03T00:06:30.467Z,6.87
2023-05-03T00:07:30.473Z,6.91
2023-05-03T00:08:30.496Z,6.85
2023-05-03T00:09:30.521Z,6.80
2023-05-03T00:10:30.532Z,6.81
2023-05-03T00:11:30.553Z,6.87
2023-05-03T00:12:30.574Z,6.76
2023-05-03T00:13:30.601Z,6.73
2023-05-03T00:14:30.611Z,6.73
2023-05-03T00:15:30.640Z,6.71
2023-05-03T00:16:30.668Z,6.66
2023-05-03T00:17:30.712Z,6.70
2023-05-03T00:18:30.708Z,6.67
2023-05-03T00:19:31.789Z,6.55
2023-05-03T00:20:30.747Z,6.55
2023-05-03T00:21:30.793Z,6.54
2023-05-03T00:22:30.771Z,6.61
2023-05-03T00:23:30.799Z,6.51
2023-05-03T00:24:30.811Z,6.55
2023-05-03T00:25:30.846Z,6.51
2023-05-03T00:26:30.874Z,6.46
2023-05-03T00:27:30.870Z,6.48
2023-05-03T00:28:30.901Z,6.33
2023-05-03T00:29:30.902Z,6.33
2023-05-03T00:30:30.954Z,6.36
2023-05-03T00:31:31.011Z,6.30
2023-05-03T00:32:30.984Z,6.30
2023-05-03T00:33:31.001Z,6.33
2023-05-03T00:34:31.032Z,6.19
2023-05-03T00:35:31.035Z,6.19
2023-05-03T00:36:31.055Z,6.17
2023-05-03T00:37:31.073Z,6.12
2023-05-03T00:38:31.088Z,6.15
2023-05-03T00:39:31.119Z,6.11
2023-05-03T00:40:31.139Z,6.21
2023-05-03T00:41:31.170Z,6.12
2023-05-03T00:42:31.169Z,6.15
2023-05-03T00:43:31.182Z,6.12
2023-05-03T00:44:31.204Z,6.08
2023-05-03T00:45:31.226Z,6.09
2023-05-03T00:46:31.261Z,6.09
2023-05-03T00:47:31.294Z,6.08
2023-05-03T00:48:31.287Z,6.08
2023-05-03T00:49:31.320Z,6.09
2023-05-03T00:50:31.342Z,6.09
2023-05-03T00:51:31.343Z,6.03
2023-05-03T00:52:31.366Z,5.99
2023-05-03T00:53:31.392Z,5.96
2023-05-03T00:54:31.401Z,5.94
2023-05-03T00:55:31.440Z,5.96
2023-05-03T00:56:37.877Z,6.03
2023-05-03T00:57:31.496Z,5.94
2023-05-03T00:58:31.488Z,5.96
2023-05-03T00:59:31.502Z,5.96
2023-05-03T01:00:31.518Z,5.99
2023-05-03T01:01:31.644Z,6.04
2023-05-03T01:02:31.644Z,5.99
2023-05-03T01:03:31.726Z,6.08
2023-05-03T01:04:31.610Z,6.06
2023-05-03T01:05:31.613Z,6.08
2023-05-03T01:06:31.686Z,6.00
2023-05-03T01:07:31.653Z,5.99
2023-05-03T01:08:31.670Z,5.91
2023-05-03T01:09:31.698Z,5.94
2023-05-03T01:10:31.717Z,5.93
2023-05-03T01:11:31.769Z,5.79
2023-05-03T01:12:31.746Z,5.79
2023-05-03T01:13:31.768Z,5.78
2023-05-03T01:14:31.785Z,5.78
2023-05-03T01:15:31.805Z,5.78
2023-05-03T01:16:31.907Z,5.78
2023-05-03T01:17:31.918Z,5.81
2023-05-03T01:18:31.871Z,5.76
2023-05-03T01:19:31.887Z,5.76
2023-05-03T01:20:31.923Z,5.83
2023-05-03T01:21:33.666Z,5.81
2023-05-03T01:22:31.944Z,5.72
2023-05-03T01:23:31.964Z,5.79
2023-05-03T01:24:31.983Z,5.75
2023-05-03T01:25:32.000Z,5.83
2023-05-03T01:26:32.020Z,5.78
2023-05-03T01:27:32.054Z,5.74
2023-05-03T01:28:32.060Z,5.74
2023-05-03T01:29:32.088Z,5.75
2023-05-03T01:30:32.114Z,5.71
2023-05-03T01:31:32.257Z,5.74
2023-05-03T01:32:32.157Z,5.72
2023-05-03T01:33:32.176Z,5.64
2023-05-03T01:34:32.169Z,5.58
2023-05-03T01:35:32.195Z,5.61
2023-05-03T01:36:32.212Z,5.53
2023-05-03T01:37:32.232Z,5.58
2023-05-03T01:38:32.247Z,5.60
2023-05-03T01:39:32.276Z,5.54
2023-05-03T01:40:32.287Z,5.51
2023-05-03T01:41:32.316Z,5.53
2023-05-03T01:42:32.326Z,5.49
2023-05-03T01:43:32.361Z,5.57
2023-05-03T01:44:32.364Z,5.48
2023-05-03T01:45:32.435Z,5.48
2023-05-03T01:46:32.478Z,5.49
2023-05-03T01:47:32.497Z,5.42
2023-05-03T01:48:32.451Z,5.46
2023-05-03T01:49:32.491Z,5.43
2023-05-03T01:50:32.483Z,5.40
2023-05-03T01:51:32.518Z,5.43
2023-05-03T01:52:32.555Z,5.42
2023-05-03T01:53:32.540Z,5.40
2023-05-03T01:54:32.558Z,5.38
2023-05-03T01:55:32.581Z,5.36
2023-05-03T01:56:32.597Z,5.38
2023-05-03T01:57:32.639Z,5.36
2023-05-03T01:58:32.642Z,5.30
2023-05-03T01:59:32.660Z,5.35
2023-05-03T02:00:32.673Z,5.25
2023-05-03T02:01:32.781Z,5.21
2023-05-03T02:02:32.728Z,5.24
2023-05-03T02:03:32.730Z,5.22
2023-05-03T02:04:32.884Z,5.22
2023-05-03T02:05:32.780Z,5.17
2023-05-03T02:06:32.850Z,5.12
2023-05-03T02:07:32.806Z,5.12
2023-05-03T02:08:32.826Z,5.13
2023-05-03T02:09:32.859Z,5.12
2023-05-03T02:10:32.865Z,5.13
2023-05-03T02:11:32.895Z,5.12
2023-05-03T02:12:32.903Z,5.10
2023-05-03T02:13:32.947Z,5.17
2023-05-03T02:14:32.946Z,5.12
2023-05-03T02:15:32.961Z,5.12
2023-05-03T02:16:33.006Z,5.12
2023-05-03T02:17:33.060Z,5.20
2023-05-03T02:18:33.017Z,5.09
2023-05-03T02:19:33.037Z,5.17
2023-05-03T02:20:33.054Z,5.09
2023-05-03T02:21:33.086Z,4.99
2023-05-03T02:22:33.095Z,5.15
2023-05-03T02:23:33.113Z,5.06
2023-05-03T02:24:33.124Z,5.09
2023-05-03T02:25:33.151Z,5.06
2023-05-03T02:26:33.196Z,5.13
2023-05-03T02:27:33.209Z,5.04
2023-05-03T02:28:33.202Z,5.06
2023-05-03T02:29:33.253Z,5.06
2023-05-03T02:30:33.245Z,5.02
2023-05-03T02:31:33.389Z,5.03
2023-05-03T02:32:33.364Z,5.02
2023-05-03T02:33:33.319Z,4.97
2023-05-03T02:34:33.325Z,5.00
2023-05-03T02:35:33.338Z,4.86
2023-05-03T02:36:33.358Z,4.99
2023-05-03T02:37:33.382Z,4.88
2023-05-03T02:38:33.399Z,4.92
2023-05-03T02:39:33.425Z,4.88
2023-05-03T02:40:33.431Z,4.86
2023-05-03T02:41:33.456Z,4.89
2023-05-03T02:42:33.468Z,4.82
2023-05-03T02:43:33.490Z,4.78
2023-05-03T02:44:33.866Z,4.75
2023-05-03T02:45:33.522Z,4.73
2023-05-03T02:46:33.599Z,4.75
2023-05-03T02:47:33.744Z,4.69
2023-05-03T02:48:33.582Z,4.75
2023-05-03T02:49:33.628Z,4.72
2023-05-03T02:50:33.626Z,4.66
2023-05-03T02:51:33.661Z,4.67
2023-05-03T02:52:33.662Z,4.54
2023-05-03T02:53:33.678Z,4.60
2023-05-03T02:54:33.695Z,4.58
2023-05-03T02:55:33.709Z,4.54
2023-05-03T02:56:33.771Z,4.44
2023-05-03T02:57:33.752Z,4.45
2023-05-03T02:58:33.768Z,4.41
2023-05-03T02:59:33.796Z,4.33
2023-05-03T03:00:33.812Z,4.32
2023-05-03T03:01:33.932Z,4.29
2023-05-03T03:02:33.886Z,4.27
2023-05-03T03:03:33.937Z,4.34
2023-05-03T03:04:33.890Z,4.29
2023-05-03T03:05:33.907Z,4.30
2023-05-03T03:06:34.013Z,4.33
2023-05-03T03:07:33.935Z,4.33
2023-05-03T03:08:33.966Z,4.33
2023-05-03T03:09:33.978Z,4.34
2023-05-03T03:10:34.000Z,4.34
2023-05-03T03:11:34.027Z,4.40
2023-05-03T03:12:34.043Z,4.40
2023-05-03T03:13:34.061Z,4.45
2023-05-03T03:14:34.085Z,4.34
2023-05-03T03:15:34.099Z,4.40
2023-05-03T03:16:34.136Z,4.34
2023-05-03T03:17:34.194Z,4.33
2023-05-03T03:18:34.166Z,4.30
2023-05-03T03:19:34.177Z,4.23
2023-05-03T03:20:34.222Z,4.30
2023-05-03T03:21:34.207Z,4.20
2023-05-03T03:22:34.248Z,4.18
2023-05-03T03:23:34.264Z,4.15
2023-05-03T03:24:34.280Z,4.08
2023-05-03T03:25:34.297Z,4.05
2023-05-03T03:26:34.310Z,4.11
2023-05-03T03:27:34.332Z,4.11
2023-05-03T03:28:34.349Z,4.08
2023-05-03T03:29:34.372Z,4.06
2023-05-03T03:30:34.363Z,4.18
2023-05-03T03:31:34.430Z,4.09
2023-05-03T03:32:34.450Z,4.16
2023-05-03T03:33:34.434Z,4.23
2023-05-03T03:34:34.453Z,4.15
2023-05-03T03:35:34.487Z,4.12
2023-05-03T03:36:34.503Z,4.15
2023-05-03T03:37:34.552Z,4.22
2023-05-03T03:38:34.559Z,4.11
2023-05-03T03:39:34.556Z,4.20
2023-05-03T03:40:34.566Z,4.15
2023-05-03T03:41:34.589Z,4.08
2023-05-03T03:42:34.598Z,4.11
2023-05-03T03:43:34.612Z,4.09
2023-05-03T03:44:34.653Z,4.15
2023-05-03T03:45:34.691Z,4.15
2023-05-03T03:46:34.709Z,4.14
2023-05-03T03:47:34.725Z,4.14
2023-05-03T03:48:34.708Z,4.11
2023-05-03T03:49:34.753Z,4.15
2023-05-03T03:50:34.753Z,4.14
2023-05-03T03:51:34.761Z,4.11
2023-05-03T03:52:34.785Z,4.11
2023-05-03T03:53:34.822Z,4.16
2023-05-03T03:54:34.835Z,4.23
2023-05-03T03:55:34.846Z,4.22
2023-05-03T03:56:34.864Z,4.23
2023-05-03T03:57:34.873Z,4.23
2023-05-03T03:58:34.894Z,4.12
2023-05-03T03:59:34.922Z,4.15
2023-05-03T04:00:34.955Z,4.22
2023-05-03T04:01:34.948Z,4.18
2023-05-03T04:02:35.132Z,4.16
2023-05-03T04:03:35.092Z,4.29
2023-05-03T04:04:35.089Z,4.18
2023-05-03T04:05:35.039Z,4.22
2023-05-03T04:06:35.111Z,4.15
2023-05-03T04:07:35.074Z,4.16
2023-05-03T04:08:35.087Z,4.27
2023-05-03T04:09:35.090Z,4.18
2023-05-03T04:10:35.123Z,4.30
2023-05-03T04:11:35.170Z,4.33
2023-05-03T04:12:35.147Z,4.23
2023-05-03T04:13:35.172Z,4.36
2023-05-03T04:14:35.181Z,4.34
2023-05-03T04:15:35.193Z,4.33
2023-05-03T04:16:35.231Z,4.37
2023-05-03T04:17:35.302Z,4.44
2023-05-03T04:18:35.250Z,4.47
2023-05-03T04:19:35.272Z,4.58
2023-05-03T04:20:35.293Z,4.75
2023-05-03T04:21:35.308Z,5.03
2023-05-03T04:22:35.323Z,5.17
2023-05-03T04:23:35.344Z,5.46
2023-05-03T04:24:35.358Z,5.71
2023-05-03T04:25:35.409Z,6.00
2023-05-03T04:26:35.428Z,6.18
2023-05-03T04:27:35.420Z,6.59
2023-05-03T04:28:35.430Z,6.84
2023-05-03T04:29:35.457Z,7.13
2023-05-03T04:30:35.489Z,7.34
2023-05-03T04:31:35.494Z,7.61
2023-05-03T04:32:35.553Z,7.83
2023-05-03T04:33:35.549Z,8.00
2023-05-03T04:34:35.551Z,8.26
2023-05-03T04:35:35.570Z,8.34
2023-05-03T04:36:35.599Z,8.36
2023-05-03T04:37:35.611Z,8.36
2023-05-03T04:38:35.628Z,8.18
2023-05-03T04:39:35.654Z,8.02
2023-05-03T04:40:35.671Z,7.90
2023-05-03T04:41:35.701Z,7.83
2023-05-03T04:42:35.720Z,7.80
2023-05-03T04:43:35.731Z,7.93
2023-05-03T04:44:35.768Z,8.15
2023-05-03T04:45:35.774Z,8.41
2023-05-03T04:46:35.874Z,8.63
2023-05-03T04:47:35.870Z,8.95
2023-05-03T04:48:35.833Z,9.35
2023-05-03T04:49:35.857Z,9.48
2023-05-03T04:50:35.878Z,9.83
2023-05-03T04:51:35.913Z,10.08
2023-05-03T04:52:35.934Z,10.36
2023-05-03T04:53:35.945Z,10.60
2023-05-03T04:54:35.958Z,10.79
2023-05-03T04:55:35.980Z,10.88
2023-05-03T04:56:36.010Z,11.10
2023-05-03T04:57:36.024Z,11.11
2023-05-03T04:58:36.042Z,11.22
2023-05-03T04:59:36.085Z,11.28
2023-05-03T05:00:36.083Z,11.25
2023-05-03T05:01:36.150Z,11.35
2023-05-03T05:02:36.185Z,11.42
2023-05-03T05:03:36.301Z,11.42
2023-05-03T05:04:36.175Z,11.37
2023-05-03T05:05:36.189Z,11.40
2023-05-03T05:06:36.246Z,11.44
2023-05-03T05:07:36.240Z,11.37
2023-05-03T05:08:36.269Z,11.36
2023-05-03T05:09:36.280Z,11.28
2023-05-03T05:10:36.317Z,11.37
2023-05-03T05:11:36.359Z,11.24
2023-05-03T05:12:36.344Z,11.10
2023-05-03T05:13:36.386Z,11.00
2023-05-03T05:14:36.391Z,10.86
2023-05-03T05:15:36.418Z,10.71
2023-05-03T05:16:36.545Z,10.73
2023-05-03T05:17:36.632Z,10.70
2023-05-03T05:18:36.545Z,10.81
2023-05-03T05:19:36.497Z,10.78
2023-05-03T05:20:36.516Z,10.84
2023-05-03T05:21:36.543Z,10.82
2023-05-03T05:22:36.566Z,10.85
2023-05-03T05:23:36.685Z,10.78
2023-05-03T05:24:36.613Z,10.82
2023-05-03T05:25:36.634Z,10.71
2023-05-03T05:26:36.649Z,10.74
2023-05-03T05:27:36.673Z,10.73
2023-05-03T05:28:36.700Z,10.78
2023-05-03T05:29:36.725Z,10.66
2023-05-03T05:30:36.752Z,10.71
2023-05-03T05:31:36.806Z,10.78
2023-05-03T05:32:36.802Z,10.78
2023-05-03T05:33:36.802Z,10.81
2023-05-03T05:34:44.762Z,11.04
2023-05-03T05:35:36.848Z,11.19
2023-05-03T05:36:36.889Z,11.40
2023-05-03T05:37:36.896Z,11.78
2023-05-03T05:38:36.916Z,11.94
2023-05-03T05:39:36.990Z,12.10
2023-05-03T05:40:36.963Z,12.31
2023-05-03T05:41:37.007Z,12.47
2023-05-03T05:42:37.004Z,12.64
2023-05-03T05:43:37.045Z,12.77
2023-05-03T05:44:37.052Z,12.78
2023-05-03T05:45:37.074Z,12.65
2023-05-03T05:46:37.191Z,12.53
2023-05-03T05:47:37.162Z,12.34
2023-05-03T05:48:37.193Z,12.13
2023-05-03T05:49:37.188Z,11.85
2023-05-03T05:50:37.213Z,11.67
2023-05-03T05:51:37.236Z,11.37
2023-05-03T05:52:37.269Z,11.15
2023-05-03T05:53:37.308Z,10.85
2023-05-03T05:54:37.295Z,10.64
2023-05-03T05:55:37.446Z,10.44
2023-05-03T05:56:37.340Z,10.23
2023-05-03T05:57:37.381Z,10.12
2023-05-03T05:58:37.494Z,9.91
2023-05-03T05:59:37.401Z,9.99
2023-05-03T06:00:37.444Z,10.05
2023-05-03T06:01:37.481Z,10.07
2023-05-03T06:02:37.776Z,10.26
2023-05-03T06:03:37.507Z,10.63
2023-05-03T06:04:37.583Z,10.91
2023-05-03T06:05:37.637Z,11.37
2023-05-03T06:06:37.599Z,11.70
2023-05-03T06:07:37.590Z,12.27
2023-05-03T06:08:37.607Z,12.67
2023-05-03T06:09:37.656Z,13.04
2023-05-03T06:10:37.675Z,13.28
2023-05-03T06:11:37.701Z,13.55
2023-05-03T06:12:37.694Z,13.36
2023-05-03T06:13:37.717Z,13.39
2023-05-03T06:14:37.743Z,13.28
2023-05-03T06:15:37.766Z,13.29
2023-05-03T06:16:37.817Z,13.42
2023-05-03T06:17:37.861Z,13.63
2023-05-03T06:18:37.854Z,13.82
2023-05-03T06:19:37.863Z,13.82
2023-05-03T06:20:37.897Z,14.02
2023-05-03T06:21:37.934Z,14.27
2023-05-03T06:22:37.946Z,14.39
2023-05-03T06:23:37.972Z,14.55
2023-05-03T06:24:38.006Z,14.78
2023-05-03T06:25:38.013Z,14.98
2023-05-03T06:26:38.041Z,15.03
2023-05-03T06:27:38.070Z,15.23
2023-05-03T06:28:38.105Z,15.28
2023-05-03T06:29:38.120Z,15.32
2023-05-03T06:30:38.160Z,15.23
2023-05-03T06:31:38.237Z,15.32
2023-05-03T06:32:38.207Z,15.41
2023-05-03T06:33:38.224Z,15.35
2023-05-03T06:34:38.256Z,15.41
2023-05-03T06:35:38.275Z,15.19
2023-05-03T06:36:38.304Z,15.10
2023-05-03T06:37:38.334Z,15.13
2023-05-03T06:38:38.355Z,15.16
2023-05-03T06:39:38.408Z,14.81
2023-05-03T06:40:38.648Z,14.51
2023-05-03T06:41:38.441Z,14.37
2023-05-03T06:42:38.471Z,14.24
2023-05-03T06:43:38.518Z,14.28
2023-05-03T06:44:38.587Z,14.39
2023-05-03T06:45:38.586Z,14.40
2023-05-03T06:46:38.716Z,14.45
2023-05-03T06:47:38.641Z,14.52
2023-05-03T06:48:38.653Z,14.91
2023-05-03T06:49:38.656Z,14.91
2023-05-03T06:50:38.719Z,14.91
2023-05-03T06:51:38.713Z,14.80
2023-05-03T06:52:38.738Z,14.83
2023-05-03T06:53:38.772Z,14.83
2023-05-03T06:54:38.825Z,14.91
2023-05-03T06:55:38.815Z,14.84
2023-05-03T06:56:38.848Z,14.92
2023-05-03T06:57:38.874Z,14.95
2023-05-03T06:58:38.916Z,14.94
2023-05-03T06:59:38.928Z,14.91
2023-05-03T07:00:38.963Z,14.99
2023-05-03T07:01:39.004Z,14.94
2023-05-03T07:02:39.080Z,15.07
2023-05-03T07:03:41.675Z,15.14
2023-05-03T07:04:39.068Z,15.25
2023-05-03T07:05:39.105Z,14.89
2023-05-03T07:06:52.548Z,14.64
2023-05-03T07:07:39.159Z,14.58
2023-05-03T07:08:39.185Z,14.32
2023-05-03T07:09:43.279Z,14.27
2023-05-03T07:10:39.235Z,14.15
2023-05-03T07:11:39.257Z,14.15
2023-05-03T07:12:39.289Z,13.91
2023-05-03T07:13:39.310Z,13.71
2023-05-03T07:14:39.343Z,13.62
2023-05-03T07:15:39.510Z,13.41
2023-05-03T07:16:39.418Z,13.36
2023-05-03T07:17:39.437Z,13.33
2023-05-03T07:18:39.452Z,13.17
2023-05-03T07:19:39.480Z,13.04
2023-05-03T07:20:39.484Z,12.87
2023-05-03T07:21:39.514Z,12.86
2023-05-03T07:22:39.535Z,12.82
2023-05-03T07:23:39.573Z,12.70
2023-05-03T07:24:39.656Z,12.64
2023-05-03T07:25:39.623Z,12.42
2023-05-03T07:26:39.633Z,12.42
2023-05-03T07:27:39.658Z,12.34
2023-05-03T07:28:39.702Z,12.31
2023-05-03T07:29:39.710Z,12.20
2023-05-03T07:30:39.733Z,12.19
2023-05-03T07:31:39.756Z,12.29
2023-05-03T07:32:39.897Z,12.31
2023-05-03T07:33:39.893Z,12.28
2023-05-03T07:34:39.833Z,12.31
2023-05-03T07:35:39.852Z,12.32
2023-05-03T07:36:39.899Z,12.34
2023-05-03T07:37:39.920Z,12.41
2023-05-03T07:38:39.930Z,12.52
2023-05-03T07:39:39.965Z,12.47
2023-05-03T07:40:40.056Z,12.64
2023-05-03T07:41:40.003Z,12.67
2023-05-03T07:42:40.015Z,12.64
2023-05-03T07:43:40.055Z,12.78
2023-05-03T07:44:40.067Z,12.86
2023-05-03T07:45:40.148Z,12.89
2023-05-03T07:46:40.108Z,12.89
2023-05-03T07:47:40.318Z,12.93
2023-05-03T07:48:40.158Z,12.86
2023-05-03T07:49:40.207Z,12.87
2023-05-03T07:50:40.212Z,12.90
2023-05-03T07:51:40.221Z,12.85
2023-05-03T07:52:40.280Z,12.90
2023-05-03T07:53:40.275Z,12.92
2023-05-03T07:54:40.295Z,12.86
2023-05-03T07:55:40.324Z,12.82
2023-05-03T07:56:40.349Z,12.74
2023-05-03T07:57:40.386Z,12.64
2023-05-03T07:58:41.091Z,12.57
2023-05-03T07:59:40.419Z,12.47
2023-05-03T08:00:40.437Z,12.47
2023-05-03T08:01:40.460Z,12.45
2023-05-03T08:02:40.646Z,12.54
2023-05-03T08:03:40.797Z,12.59
2023-05-03T08:04:40.697Z,12.56
2023-05-03T08:05:40.628Z,12.49
2023-05-03T08:06:40.612Z,12.41
2023-05-03T08:07:40.602Z,12.31
2023-05-03T08:08:40.623Z,12.20
2023-05-03T08:09:40.648Z,12.14
2023-05-03T08:10:40.700Z,12.13
2023-05-03T08:11:43.167Z,12.17
2023-05-03T08:12:40.721Z,12.02
2023-05-03T08:13:40.743Z,12.05
2023-05-03T08:14:40.765Z,11.98
2023-05-03T08:15:40.806Z,11.90
2023-05-03T08:16:40.832Z,11.90
2023-05-03T08:17:40.871Z,11.83
2023-05-03T08:18:40.863Z,11.82
2023-05-03T08:19:40.930Z,11.91
2023-05-03T08:20:40.905Z,11.96
2023-05-03T08:21:40.929Z,11.85
2023-05-03T08:22:40.964Z,11.86
2023-05-03T08:23:40.972Z,11.85
2023-05-03T08:24:41.007Z,11.94
2023-05-03T08:25:41.025Z,12.01
2023-05-03T08:26:41.064Z,12.14
2023-05-03T08:27:41.067Z,12.20
2023-05-03T08:28:41.091Z,12.29
2023-05-03T08:29:41.117Z,12.28
2023-05-03T08:30:41.142Z,12.34
2023-05-03T08:31:41.373Z,12.24
2023-05-03T08:32:41.225Z,12.31
2023-05-03T08:33:41.213Z,12.37
2023-05-03T08:34:41.228Z,12.39
2023-05-03T08:35:41.251Z,12.56
2023-05-03T08:36:41.276Z,12.65
2023-05-03T08:37:41.297Z,12.86
2023-05-03T08:38:41.326Z,12.89
2023-05-03T08:39:41.384Z,12.74
2023-05-03T08:40:41.375Z,12.62
2023-05-03T08:41:41.389Z,12.64
2023-05-03T08:42:41.413Z,12.65
2023-05-03T08:43:41.438Z,12.70
2023-05-03T08:44:41.460Z,12.72
2023-05-03T08:45:41.481Z,12.68
2023-05-03T08:46:41.564Z,12.70
2023-05-03T08:47:41.622Z,12.82
2023-05-03T08:48:41.552Z,12.96
2023-05-03T08:49:41.577Z,12.90
2023-05-03T08:50:41.607Z,12.95
2023-05-03T08:51:41.687Z,13.05
2023-05-03T08:52:41.646Z,13.05
2023-05-03T08:53:41.666Z,13.04
2023-05-03T08:54:41.686Z,13.14
2023-05-03T08:55:41.728Z,13.22
2023-05-03T08:56:41.771Z,13.28
2023-05-03T08:57:41.761Z,13.46
2023-05-03T08:58:41.804Z,13.60
2023-05-03T08:59:41.806Z,13.66
2023-05-03T09:00:41.828Z,13.77
2023-05-03T09:01:41.901Z,13.54
2023-05-03T09:02:42.052Z,13.60
2023-05-03T09:03:41.953Z,13.59
2023-05-03T09:04:41.920Z,13.52
2023-05-03T09:05:41.945Z,13.51
2023-05-03T09:06:42.013Z,13.39
2023-05-03T09:07:42.063Z,13.22
2023-05-03T09:08:42.014Z,13.22
2023-05-03T09:09:43.006Z,13.15
2023-05-03T09:10:42.118Z,13.14
2023-05-03T09:11:42.097Z,13.14
2023-05-03T09:12:42.168Z,13.11
2023-05-03T09:13:42.134Z,13.14
2023-05-03T09:14:42.173Z,13.14
2023-05-03T09:15:42.188Z,13.01
2023-05-03T09:16:42.243Z,13.14
2023-05-03T09:17:42.299Z,13.12
2023-05-03T09:18:42.246Z,13.11
2023-05-03T09:19:42.275Z,13.17
2023-05-03T09:20:42.305Z,13.17
2023-05-03T09:21:42.319Z,13.12
2023-05-03T09:22:42.343Z,13.11
2023-05-03T09:23:42.376Z,13.19
2023-05-03T09:24:42.396Z,13.15
2023-05-03T09:25:42.419Z,13.14
2023-05-03T09:26:42.438Z,13.28
2023-05-03T09:27:42.463Z,13.30
2023-05-03T09:28:42.493Z,13.29
2023-05-03T09:29:42.507Z,13.41
2023-05-03T09:30:42.532Z,13.28
2023-05-03T09:31:42.579Z,13.32
2023-05-03T09:32:42.635Z,13.29
2023-05-03T09:33:42.603Z,13.33
2023-05-03T09:34:42.625Z,13.39
2023-05-03T09:35:42.684Z,13.41
2023-05-03T09:36:44.006Z,13.52
2023-05-03T09:37:42.703Z,13.49
2023-05-03T09:38:42.720Z,13.55
2023-05-03T09:39:42.802Z,13.52
2023-05-03T09:40:42.785Z,13.55
2023-05-03T09:41:42.794Z,13.42
2023-05-03T09:42:42.814Z,13.28
2023-05-03T09:43:42.855Z,13.20
2023-05-03T09:44:42.890Z,13.30
2023-05-03T09:45:42.910Z,13.32
2023-05-03T09:46:42.906Z,13.32
2023-05-03T09:47:42.975Z,13.29
2023-05-03T09:48:42.955Z,13.26
2023-05-03T09:49:42.976Z,13.19
2023-05-03T09:50:43.022Z,13.20
2023-05-03T09:51:43.024Z,13.03
2023-05-03T09:52:43.046Z,13.04
2023-05-03T09:53:43.077Z,13.14
2023-05-03T09:54:43.102Z,13.07
2023-05-03T09:55:43.206Z,13.14
2023-05-03T09:56:43.141Z,13.01
2023-05-03T09:57:43.158Z,13.07
2023-05-03T09:58:43.190Z,13.04
2023-05-03T09:59:43.212Z,13.11
2023-05-03T10:00:43.231Z,13.22
2023-05-03T10:01:43.301Z,13.17
2023-05-03T10:02:43.347Z,13.32
2023-05-03T10:03:43.324Z,13.44
2023-05-03T10:04:43.354Z,13.60
2023-05-03T10:05:43.350Z,13.54
2023-05-03T10:06:43.442Z,13.69
2023-05-03T10:07:43.476Z,13.69
2023-05-03T10:08:43.447Z,13.63
2023-05-03T10:09:43.445Z,13.77
2023-05-03T10:10:43.467Z,13.64
2023-05-03T10:11:43.542Z,13.64
2023-05-03T10:12:43.510Z,13.69
2023-05-03T10:13:43.541Z,13.57
2023-05-03T10:14:43.596Z,13.67
2023-05-03T10:15:43.642Z,13.66
2023-05-03T10:16:43.620Z,13.59
2023-05-03T10:17:48.276Z,13.69
2023-05-03T10:18:43.688Z,13.71
2023-05-03T10:19:43.722Z,13.73
2023-05-03T10:20:43.705Z,13.69
2023-05-03T10:21:43.752Z,13.64
2023-05-03T10:22:43.762Z,13.64
2023-05-03T10:23:43.777Z,13.62
2023-05-03T10:24:43.836Z,13.70
2023-05-03T10:25:43.842Z,13.64
2023-05-03T10:26:43.836Z,13.78
2023-05-03T10:27:43.896Z,13.73
2023-05-03T10:28:43.912Z,13.81
2023-05-03T10:29:43.930Z,13.66
2023-05-03T10:30:43.928Z,13.69
2023-05-03T10:31:44.128Z,13.67
2023-05-03T10:32:43.996Z,13.55
2023-05-03T10:33:44.006Z,13.59
2023-05-03T10:34:45.185Z,13.55
2023-05-03T10:35:44.068Z,13.52
2023-05-03T10:36:49.834Z,13.63
2023-05-03T10:37:44.091Z,13.69
2023-05-03T10:38:44.112Z,13.77
2023-05-03T10:39:44.139Z,13.85
2023-05-03T10:40:44.162Z,13.95
2023-05-03T10:41:44.188Z,14.07
2023-05-03T10:42:44.208Z,13.95
2023-05-03T10:43:44.248Z,14.09
2023-05-03T10:44:44.254Z,14.09
2023-05-03T10:45:44.278Z,14.09
2023-05-03T10:46:44.406Z,14.00
2023-05-03T10:47:44.343Z,13.95
2023-05-03T10:48:44.348Z,13.96
2023-05-03T10:49:44.386Z,13.89
2023-05-03T10:50:44.418Z,13.88
2023-05-03T10:51:44.416Z,13.92
2023-05-03T10:52:44.444Z,13.92
2023-05-03T10:53:44.467Z,13.87
2023-05-03T10:54:44.497Z,14.02
2023-05-03T10:55:44.518Z,13.95
2023-05-03T10:56:44.538Z,13.92
2023-05-03T10:57:44.558Z,13.99
2023-05-03T10:58:44.593Z,14.00
2023-05-03T10:59:44.648Z,14.14
2023-05-03T11:00:44.652Z,14.24
2023-05-03T11:01:44.710Z,14.28
2023-05-03T11:02:44.714Z,14.43
2023-05-03T11:03:44.718Z,14.42
2023-05-03T11:04:44.805Z,14.46
2023-05-03T11:05:44.765Z,14.46
2023-05-03T11:06:44.780Z,14.46
2023-05-03T11:07:44.802Z,14.54
2023-05-03T11:08:44.823Z,14.47
2023-05-03T11:09:46.442Z,14.40
2023-05-03T11:10:44.867Z,14.36
2023-05-03T11:11:44.897Z,14.24
2023-05-03T11:12:44.937Z,14.35
2023-05-03T11:13:44.962Z,14.35
2023-05-03T11:14:44.962Z,14.15
2023-05-03T11:15:47.656Z,14.22
2023-05-03T11:16:45.029Z,14.22
2023-05-03T11:17:45.086Z,14.17
2023-05-03T11:18:45.053Z,14.29
2023-05-03T11:19:45.082Z,14.35
2023-05-03T11:20:45.113Z,14.54
2023-05-03T11:21:46.420Z,14.64
2023-05-03T11:22:45.165Z,14.62
2023-05-03T11:23:45.180Z,14.55
2023-05-03T11:24:45.197Z,14.47
2023-05-03T11:25:45.225Z,14.45
2023-05-03T11:26:45.242Z,14.46
2023-05-03T11:27:47.651Z,14.36
2023-05-03T11:28:45.290Z,14.54
2023-05-03T11:29:45.318Z,14.61
2023-05-03T11:30:45.337Z,14.64
2023-05-03T11:31:45.454Z,14.51
2023-05-03T11:32:45.463Z,14.52
2023-05-03T11:33:47.869Z,14.57
2023-05-03T11:34:45.434Z,14.62
2023-05-03T11:35:45.479Z,14.62
2023-05-03T11:36:45.496Z,14.69
2023-05-03T11:37:45.502Z,14.61
2023-05-03T11:38:45.526Z,14.64
2023-05-03T11:39:45.568Z,14.69
2023-05-03T11:40:45.574Z,14.69
2023-05-03T11:41:45.607Z,14.55
2023-05-03T11:42:45.626Z,14.65
2023-05-03T11:43:45.647Z,14.75
2023-05-03T11:44:45.679Z,14.72
2023-05-03T11:45:45.893Z,14.92
2023-05-03T11:46:45.871Z,14.95
2023-05-03T11:47:45.800Z,15.02
2023-05-03T11:48:45.765Z,15.09
2023-05-03T11:49:45.816Z,15.14
2023-05-03T11:50:45.814Z,15.23
2023-05-03T11:51:48.506Z,15.23
2023-05-03T11:52:45.883Z,15.25
2023-05-03T11:53:45.889Z,15.20
2023-05-03T11:54:45.912Z,15.21
2023-05-03T11:55:45.956Z,15.17
2023-05-03T11:56:45.967Z,15.20
2023-05-03T11:57:45.990Z,15.16
2023-05-03T11:58:46.015Z,15.20
2023-05-03T11:59:46.040Z,15.17
2023-05-03T12:00:46.108Z,15.19
2023-05-03T12:01:46.101Z,15.19
2023-05-03T12:02:46.208Z,15.20
2023-05-03T12:03:46.333Z,15.19
2023-05-03T12:04:46.705Z,15.20
2023-05-03T12:05:46.519Z,15.21
2023-05-03T12:06:47.151Z,15.20
2023-05-03T12:07:46.369Z,15.25
2023-05-03T12:08:47.031Z,15.31
2023-05-03T12:09:53.270Z,15.32
2023-05-03T12:10:46.877Z,15.35
2023-05-03T12:11:48.141Z,15.35
2023-05-03T12:12:50.000Z,15.21
2023-05-03T12:13:47.768Z,15.21
2023-05-03T12:14:46.540Z,15.14
2023-05-03T12:16:46.639Z,15.21
2023-05-03T12:17:49.823Z,15.25
2023-05-03T12:18:47.365Z,15.20
2023-05-03T12:19:48.775Z,15.32
2023-05-03T12:21:54.120Z,15.35
2023-05-03T12:22:46.826Z,15.39
2023-05-03T12:23:46.697Z,15.34
2023-05-03T12:24:59.683Z,15.38
2023-05-03T12:25:49.004Z,15.35
2023-05-03T12:26:48.725Z,15.34
2023-05-03T12:27:52.732Z,15.41
2023-05-03T12:28:46.806Z,15.35
2023-05-03T12:29:47.542Z,15.31
2023-05-03T12:30:47.097Z,15.21
2023-05-03T12:31:49.145Z,15.25
2023-05-03T12:32:46.983Z,15.17
2023-05-03T12:34:00.587Z,15.23
2023-05-03T12:34:47.308Z,15.29
2023-05-03T12:36:49.010Z,15.20
2023-05-03T12:37:49.375Z,15.25
2023-05-03T12:38:49.057Z,15.39
2023-05-03T12:39:53.742Z,15.43
2023-05-03T12:40:47.182Z,15.46
2023-05-03T12:42:47.113Z,15.43
2023-05-03T12:43:47.207Z,15.41
2023-05-03T12:44:48.255Z,15.41
2023-05-03T12:45:53.043Z,15.47
2023-05-03T12:46:47.268Z,15.43
2023-05-03T12:47:49.977Z,15.50
2023-05-03T12:48:47.370Z,15.47
2023-05-03T12:49:47.421Z,15.59
2023-05-03T12:50:49.971Z,15.57
2023-05-03T12:51:55.538Z,15.59
2023-05-03T12:52:51.448Z,15.57
2023-05-03T12:53:47.782Z,15.59
2023-05-03T12:54:49.259Z,15.62
2023-05-03T12:55:51.335Z,15.71
2023-05-03T12:56:48.224Z,15.68
2023-05-03T12:57:59.613Z,15.76
2023-05-03T12:59:11.201Z,15.54
2023-05-03T13:01:22.284Z,15.35
2023-05-03T13:02:57.523Z,15.53
2023-05-03T13:04:04.981Z,15.68
2023-05-03T13:04:56.883Z,15.64
2023-05-03T13:05:47.853Z,15.78
2023-05-03T13:06:48.260Z,15.82
2023-05-03T13:07:52.242Z,15.86
2023-05-03T13:08:49.907Z,15.82